Other Surface Observations
Issued by NWS Missoula, MT

Home | Current Version | Previous Version | Text Only | Print | Product List | Glossary On
Versions: 1 2 3 4 5 6 7 8 9 10 11 12 13 14 15 16 17 18 19 20 21 22 23 24 25 26 27 28 29 30 31 32 33 34 35 36 37 38 39 40 41 42 43 44 45 46 47 48 49 50
000
SXUS55 KMSO 231344
OSOMSO
MONTANA AWOS SUMMARY
NATIONAL WEATHER SERVICE MISSOULA MT
643 AM MST WED APR 23 2014

Montana AWOS Reports

LAUREL      |K6S8 231335Z AUTO 25024G30KT 40SM 06/M05 A2964 RMK AO1 T00561049
ROUNDUP     |KRPX 231335Z AUTO 00000KT 40SM 06/M01 A2954 RMK AO1 T00561005
MALTA       |KM75 231335Z AUTO 25012G18KT 10SM 07/03 A2951 RMK AO1 T00720033




USA.gov is the U.S. government's official web portal to all federal, state and local government web resources and services.